createdAt,value
2022-08-05T00:00:17.492Z,21.66
2022-08-05T00:02:51.033Z,21.60
2022-08-05T00:05:27.105Z,21.86
2022-08-05T00:08:35.216Z,21.96
2022-08-05T00:11:03.105Z,21.92
2022-08-05T00:13:39.648Z,21.90
2022-08-05T00:16:12.490Z,21.80
2022-08-05T00:18:42.568Z,21.73
2022-08-05T00:21:14.396Z,21.72
2022-08-05T00:23:46.453Z,21.75
2022-08-05T00:26:22.036Z,21.84
2022-08-05T00:28:49.774Z,22.01
2022-08-05T00:31:16.826Z,21.98
2022-08-05T00:34:53.755Z,21.86
2022-08-05T00:37:12.461Z,22.03
2022-08-05T00:39:57.059Z,21.88
2022-08-05T00:42:38.167Z,22.05
2022-08-05T00:45:08.877Z,21.94
2022-08-05T00:47:56.601Z,21.43
2022-08-05T00:50:25.708Z,21.12
2022-08-05T00:52:55.076Z,20.83
2022-08-05T00:55:23.357Z,20.91
2022-08-05T00:58:16.715Z,20.94
2022-08-05T01:00:47.562Z,20.95
2022-08-05T01:03:22.530Z,21.22
2022-08-05T01:05:54.446Z,21.52
2022-08-05T01:08:40.529Z,21.55
2022-08-05T01:11:33.457Z,21.41
2022-08-05T01:14:15.589Z,21.19
2022-08-05T01:17:01.470Z,21.45
2022-08-05T01:20:01.615Z,21.18
2022-08-05T01:23:15.525Z,21.40
2022-08-05T01:26:28.773Z,21.19
2022-08-05T01:29:27.507Z,21.02
2022-08-05T01:32:04.399Z,20.63
2022-08-05T01:34:34.229Z,20.40
2022-08-05T01:37:24.752Z,20.34
2022-08-05T01:39:58.672Z,20.48
2022-08-05T01:42:28.245Z,20.52
2022-08-05T01:44:59.895Z,20.55
2022-08-05T01:47:39.026Z,20.52
2022-08-05T01:50:16.072Z,20.45
2022-08-05T01:52:50.096Z,20.41
2022-08-05T01:55:21.270Z,20.39
2022-08-05T01:58:11.071Z,20.44
2022-08-05T02:00:42.480Z,20.53
2022-08-05T02:03:29.043Z,20.53
2022-08-05T02:06:03.749Z,20.37
2022-08-05T02:08:58.004Z,20.31
2022-08-05T02:12:01.688Z,20.67
2022-08-05T02:14:39.911Z,20.82
2022-08-05T02:18:28.706Z,20.56
2022-08-05T02:20:20.497Z,20.42
2022-08-05T02:22:59.828Z,20.49
2022-08-05T02:25:33.951Z,20.37
2022-08-05T02:28:28.294Z,20.48
2022-08-05T02:31:08.326Z,20.47
2022-08-05T02:33:57.859Z,20.45
2022-08-05T02:36:31.310Z,20.33
2022-08-05T02:39:02.217Z,20.42
2022-08-05T02:41:42.884Z,20.44
2022-08-05T02:44:19.749Z,20.50
2022-08-05T02:46:58.464Z,20.38
2022-08-05T02:49:36.492Z,20.21
2022-08-05T02:52:10.030Z,20.23
2022-08-05T02:54:42.308Z,20.28
2022-08-05T02:58:11.266Z,20.39
2022-08-05T03:00:08.383Z,20.17
2022-08-05T03:02:40.583Z,20.15
2022-08-05T03:05:13.320Z,20.13
2022-08-05T03:08:00.257Z,20.08
2022-08-05T03:10:29.034Z,20.24
2022-08-05T03:15:23.212Z,20.04
2022-08-05T03:17:55.470Z,19.99
2022-08-05T03:20:24.465Z,19.98
2022-08-05T03:22:53.295Z,20.06
2022-08-05T03:25:33.079Z,20.08
2022-08-05T03:28:03.984Z,19.80
2022-08-05T03:30:34.082Z,19.76
2022-08-05T03:33:04.094Z,19.69
2022-08-05T03:35:33.991Z,19.75
2022-08-05T03:38:07.745Z,19.68
2022-08-05T03:40:34.798Z,19.88
2022-08-05T03:43:59.149Z,20.04
2022-08-05T03:45:57.514Z,20.36
2022-08-05T03:48:29.939Z,20.46
2022-08-05T03:52:38.943Z,20.37
2022-08-05T03:55:52.117Z,20.14
2022-08-05T03:57:41.288Z,20.15
2022-08-05T04:00:07.397Z,19.99
2022-08-05T04:02:58.294Z,20.24
2022-08-05T04:05:33.538Z,20.42
2022-08-05T04:08:29.661Z,20.25
2022-08-05T04:10:56.432Z,20.07
2022-08-05T04:13:26.312Z,19.84
2022-08-05T04:16:14.416Z,19.96
2022-08-05T04:18:41.557Z,19.79
2022-08-05T04:21:11.152Z,19.92
2022-08-05T04:24:05.014Z,20.15
2022-08-05T04:26:26.478Z,20.09
2022-08-05T04:29:00.723Z,20.01
2022-08-05T04:31:38.524Z,19.90
2022-08-05T04:34:33.031Z,19.81
2022-08-05T04:36:53.940Z,19.92
2022-08-05T04:39:21.865Z,20.10
2022-08-05T04:41:51.109Z,20.39
2022-08-05T04:44:21.375Z,20.64
2022-08-05T04:46:56.319Z,20.85
2022-08-05T04:49:24.678Z,20.87
2022-08-05T04:52:06.205Z,20.97
2022-08-05T04:54:34.913Z,20.94
2022-08-05T04:57:01.960Z,20.89
2022-08-05T04:59:38.327Z,20.94
2022-08-05T05:02:37.701Z,21.13
2022-08-05T05:05:02.229Z,21.22
2022-08-05T05:07:32.610Z,21.34
2022-08-05T05:10:02.200Z,21.40
2022-08-05T05:12:30.042Z,21.52
2022-08-05T05:14:57.077Z,21.71
2022-08-05T05:17:56.420Z,21.99
2022-08-05T05:20:13.551Z,22.52
2022-08-05T05:22:43.962Z,22.72
2022-08-05T05:25:16.765Z,23.05
2022-08-05T05:27:53.591Z,24.05
2022-08-05T05:30:30.878Z,24.81
2022-08-05T05:33:08.879Z,25.08
2022-08-05T05:35:46.766Z,25.65
2022-08-05T05:38:22.592Z,26.24
2022-08-05T05:40:58.455Z,26.26
2022-08-05T05:43:54.225Z,26.04
2022-08-05T05:46:17.823Z,26.86
2022-08-05T05:48:48.233Z,28.27
2022-08-05T05:51:27.714Z,29.02
2022-08-05T05:53:58.763Z,28.44
2022-08-05T05:56:33.084Z,29.17
2022-08-05T05:59:08.144Z,28.31
2022-08-05T06:01:39.504Z,29.63
2022-08-05T06:04:11.731Z,30.79
2022-08-05T06:06:42.743Z,30.72
2022-08-05T06:09:18.202Z,31.73
2022-08-05T06:12:01.824Z,31.53
2022-08-05T06:14:30.935Z,32.25
2022-08-05T06:16:58.647Z,31.69
2022-08-05T06:19:34.943Z,32.33
2022-08-05T06:22:07.313Z,32.47
2022-08-05T06:24:41.234Z,32.47
2022-08-05T06:28:09.251Z,32.53
2022-08-05T06:30:19.987Z,32.62
2022-08-05T06:32:50.739Z,33.15
2022-08-05T06:36:04.002Z,33.35
2022-08-05T06:38:11.189Z,34.19
2022-08-05T06:40:42.075Z,34.03
2022-08-05T06:43:58.027Z,34.17
2022-08-05T06:46:04.066Z,34.50
2022-08-05T06:48:52.639Z,34.37
2022-08-05T06:51:29.466Z,34.49
2022-08-05T06:54:02.367Z,34.33
2022-08-05T06:56:34.519Z,34.23
2022-08-05T06:59:03.593Z,35.42
2022-08-05T07:01:36.677Z,35.19
2022-08-05T07:04:04.286Z,35.24
2022-08-05T07:06:32.192Z,34.55
2022-08-05T07:09:04.221Z,34.73
2022-08-05T07:11:37.077Z,34.38
2022-08-05T07:14:29.591Z,35.43
2022-08-05T07:17:58.837Z,35.61
2022-08-05T07:20:34.042Z,36.02
2022-08-05T07:22:37.946Z,35.50
2022-08-05T07:25:22.111Z,34.16
2022-08-05T07:27:58.828Z,34.60
2022-08-05T07:30:39.218Z,35.07
2022-08-05T07:33:10.604Z,34.80
2022-08-05T07:36:02.709Z,34.78
2022-08-05T07:38:34.192Z,34.98
2022-08-05T07:41:35.152Z,34.02
2022-08-05T07:43:57.149Z,33.93
2022-08-05T07:46:29.002Z,33.89
2022-08-05T07:49:02.529Z,34.43
2022-08-05T07:51:40.963Z,35.93
2022-08-05T07:54:16.537Z,36.90
2022-08-05T07:57:13.641Z,36.62
2022-08-05T07:59:39.962Z,36.91
2022-08-05T08:02:16.733Z,36.27
2022-08-05T08:04:48.411Z,35.45
2022-08-05T08:07:22.440Z,36.13
2022-08-05T08:09:52.345Z,36.70
2022-08-05T08:12:35.549Z,36.56
2022-08-05T08:15:09.688Z,36.81
2022-08-05T08:17:46.299Z,37.12
2022-08-05T08:21:00.163Z,36.67
2022-08-05T08:24:00.457Z,36.97
2022-08-05T08:26:00.124Z,36.87
2022-08-05T08:28:36.137Z,36.54
2022-08-05T08:31:07.724Z,36.54
2022-08-05T08:33:37.500Z,36.98
2022-08-05T08:38:56.972Z,37.72
2022-08-05T08:41:52.377Z,37.93
2022-08-05T08:45:25.033Z,38.07
2022-08-05T08:47:46.993Z,37.64
2022-08-05T08:50:07.820Z,38.68
2022-08-05T08:52:53.975Z,37.89
2022-08-05T08:56:03.140Z,38.57
2022-08-05T08:58:12.997Z,38.75
2022-08-05T09:00:42.500Z,39.45
2022-08-05T09:03:11.606Z,39.89
2022-08-05T09:06:08.603Z,40.67
2022-08-05T09:08:27.454Z,40.70
2022-08-05T09:10:58.238Z,40.24
2022-08-05T09:13:31.883Z,39.74
2022-08-05T09:16:13.753Z,36.24
2022-08-05T09:18:44.466Z,35.18
2022-08-05T09:21:20.913Z,34.55
2022-08-05T09:24:10.158Z,35.89
2022-08-05T09:26:37.809Z,37.41
2022-08-05T09:29:07.062Z,38.38
2022-08-05T09:32:41.512Z,38.26
2022-08-05T09:34:26.109Z,40.34
2022-08-05T09:36:55.974Z,38.77
2022-08-05T09:39:42.030Z,40.04
2022-08-05T09:42:23.131Z,40.42
2022-08-05T09:44:55.989Z,40.22
2022-08-05T09:47:48.041Z,40.32
2022-08-05T09:50:38.849Z,42.50
2022-08-05T09:53:09.131Z,41.03
2022-08-05T09:55:56.621Z,40.84
2022-08-05T09:58:29.253Z,40.27
2022-08-05T10:01:13.382Z,41.35
2022-08-05T10:04:00.637Z,42.37
2022-08-05T10:06:28.555Z,39.23
2022-08-05T10:08:57.186Z,38.44
2022-08-05T10:11:31.404Z,40.91
2022-08-05T10:14:26.804Z,40.45
2022-08-05T10:16:58.773Z,39.99
2022-08-05T10:19:46.193Z,37.97
2022-08-05T10:22:29.770Z,39.37
2022-08-05T10:24:57.886Z,40.71
2022-08-05T10:27:26.339Z,39.18
2022-08-05T10:31:20.121Z,38.49
2022-08-05T10:33:02.593Z,37.03
2022-08-05T10:35:33.776Z,34.46
2022-08-05T10:38:08.665Z,35.85
2022-08-05T10:40:45.956Z,37.15
2022-08-05T10:43:36.351Z,39.20
2022-08-05T10:46:07.367Z,40.92
2022-08-05T10:48:56.831Z,39.82
2022-08-05T10:51:28.599Z,42.00
2022-08-05T10:54:01.597Z,41.29
2022-08-05T10:56:49.429Z,43.00
2022-08-05T11:00:03.500Z,43.27
2022-08-05T11:02:34.645Z,43.15
2022-08-05T11:05:07.015Z,38.75
2022-08-05T11:08:02.693Z,40.98
2022-08-05T11:10:27.732Z,41.75
2022-08-05T11:12:57.561Z,43.34
2022-08-05T11:16:00.379Z,42.70
2022-08-05T11:18:34.105Z,43.49
2022-08-05T11:21:11.304Z,43.82
2022-08-05T11:24:04.265Z,43.43
2022-08-05T11:26:43.311Z,44.20
2022-08-05T11:29:35.016Z,44.47
2022-08-05T11:32:30.162Z,44.69
2022-08-05T11:34:58.203Z,45.37
2022-08-05T11:38:26.173Z,43.43
2022-08-05T11:41:34.526Z,43.62
2022-08-05T11:44:40.795Z,44.79
2022-08-05T11:47:11.115Z,44.85
2022-08-05T11:49:42.927Z,44.18
2022-08-05T11:52:11.295Z,41.22
2022-08-05T11:54:40.563Z,41.60
2022-08-05T11:57:26.101Z,42.96
2022-08-05T11:59:55.073Z,41.82
2022-08-05T12:02:33.141Z,43.31
2022-08-05T12:05:08.112Z,44.12
2022-08-05T12:08:08.864Z,45.32
2022-08-05T12:10:38.459Z,45.77
2022-08-05T12:13:27.999Z,45.64
2022-08-05T12:16:14.469Z,44.14
2022-08-05T12:18:52.219Z,43.81
2022-08-05T12:21:29.832Z,41.47
2022-08-05T12:24:08.905Z,42.47
2022-08-05T12:26:44.011Z,44.10
2022-08-05T12:29:23.690Z,43.46
2022-08-05T12:31:56.697Z,43.48
2022-08-05T12:34:32.088Z,43.12
2022-08-05T12:37:10.916Z,43.90
2022-08-05T12:39:51.064Z,44.29
2022-08-05T12:42:20.829Z,44.13
2022-08-05T12:44:48.962Z,43.77
2022-08-05T12:47:30.651Z,41.91
2022-08-05T12:50:03.065Z,41.41
2022-08-05T12:52:39.487Z,41.18
2022-08-05T12:55:25.397Z,35.59
2022-08-05T12:58:49.054Z,35.71
2022-08-05T13:02:03.141Z,36.87
2022-08-05T13:03:41.511Z,37.48
2022-08-05T13:06:15.855Z,36.06
2022-08-05T13:08:50.836Z,36.30
2022-08-05T13:11:56.877Z,36.86
2022-08-05T13:14:24.673Z,37.56
2022-08-05T13:17:06.207Z,37.75
2022-08-05T13:19:40.393Z,37.53
2022-08-05T13:22:28.010Z,37.49
2022-08-05T13:25:00.671Z,37.03
2022-08-05T13:27:37.365Z,35.83
2022-08-05T13:30:35.400Z,34.80
2022-08-05T13:32:56.409Z,35.37
2022-08-05T13:35:43.007Z,35.70
2022-08-05T13:38:19.982Z,35.82
2022-08-05T13:40:55.987Z,35.50
2022-08-05T13:43:23.367Z,35.32
2022-08-05T13:45:50.983Z,35.02
2022-08-05T13:48:57.549Z,34.63
2022-08-05T13:51:10.362Z,34.88
2022-08-05T13:53:48.028Z,34.95
2022-08-05T13:56:18.909Z,34.29
2022-08-05T13:58:53.155Z,34.39
2022-08-05T14:01:27.442Z,34.30
2022-08-05T14:04:26.653Z,34.49
2022-08-05T14:06:58.740Z,34.54
2022-08-05T14:09:43.015Z,34.40
2022-08-05T14:12:17.413Z,34.41
2022-08-05T14:14:46.421Z,34.48
2022-08-05T14:17:16.870Z,34.49
2022-08-05T14:19:55.469Z,34.48
2022-08-05T14:22:24.584Z,34.25
2022-08-05T14:24:57.980Z,34.23
2022-08-05T14:27:28.368Z,34.23
2022-08-05T14:29:56.374Z,34.19
2022-08-05T14:32:27.704Z,34.22
2022-08-05T14:34:56.767Z,34.13
2022-08-05T14:37:44.810Z,33.81
2022-08-05T14:40:14.000Z,33.85
2022-08-05T14:42:44.150Z,33.81
2022-08-05T14:45:11.677Z,33.71
2022-08-05T14:48:02.948Z,33.42
2022-08-05T14:50:26.470Z,33.16
2022-08-05T14:52:57.779Z,32.97
2022-08-05T14:55:38.654Z,32.70
2022-08-05T14:58:11.680Z,32.45
2022-08-05T15:00:59.081Z,32.28
2022-08-05T15:03:33.939Z,31.91
2022-08-05T15:06:13.535Z,31.55
2022-08-05T15:08:59.822Z,31.32
2022-08-05T15:11:51.862Z,31.13
2022-08-05T15:14:34.642Z,31.02
2022-08-05T15:17:44.249Z,30.83
2022-08-05T15:19:56.937Z,30.60
2022-08-05T15:22:27.204Z,30.52
2022-08-05T15:24:56.205Z,30.54
2022-08-05T15:27:25.437Z,30.36
2022-08-05T15:29:54.241Z,30.23
2022-08-05T15:32:27.164Z,30.19
2022-08-05T15:34:54.945Z,30.23
2022-08-05T15:38:35.003Z,30.33
2022-08-05T15:40:58.488Z,30.28
2022-08-05T15:43:09.192Z,30.21
2022-08-05T15:45:45.969Z,30.31
2022-08-05T15:48:15.218Z,30.58
2022-08-05T15:50:43.933Z,30.97
2022-08-05T15:53:13.605Z,30.92
2022-08-05T15:56:03.858Z,30.93
2022-08-05T15:58:35.597Z,30.74
2022-08-05T16:01:16.954Z,30.61
2022-08-05T16:03:50.314Z,30.53
2022-08-05T16:06:19.843Z,30.42
2022-08-05T16:08:50.396Z,30.26
2022-08-05T16:11:18.487Z,30.25
2022-08-05T16:13:48.465Z,30.18
2022-08-05T16:16:21.232Z,30.18
2022-08-05T16:18:52.988Z,30.06
2022-08-05T16:21:20.713Z,29.98
2022-08-05T16:24:39.500Z,29.83
2022-08-05T16:26:57.914Z,29.82
2022-08-05T16:29:26.987Z,29.60
2022-08-05T16:31:58.723Z,29.63
2022-08-05T16:34:27.284Z,29.62
2022-08-05T16:36:55.274Z,29.56
2022-08-05T16:39:22.853Z,29.48
2022-08-05T16:42:14.141Z,29.37
2022-08-05T16:44:44.283Z,29.40
2022-08-05T16:47:28.908Z,29.35
2022-08-05T16:50:06.696Z,29.20
2022-08-05T16:52:35.766Z,28.99
2022-08-05T16:55:04.458Z,28.85
2022-08-05T16:57:53.334Z,28.70
2022-08-05T17:00:25.967Z,28.77
2022-08-05T17:03:03.031Z,28.73
2022-08-05T17:05:31.201Z,28.73
2022-08-05T17:07:58.758Z,28.67
2022-08-05T17:10:30.405Z,28.59
2022-08-05T17:12:58.451Z,28.47
2022-08-05T17:15:29.346Z,28.40
2022-08-05T17:18:14.290Z,28.32
2022-08-05T17:20:42.458Z,28.24
2022-08-05T17:24:03.450Z,28.13
2022-08-05T17:25:59.217Z,28.01
2022-08-05T17:28:26.585Z,27.83
2022-08-05T17:30:55.909Z,27.73
2022-08-05T17:33:23.214Z,27.69
2022-08-05T17:36:08.423Z,27.67
2022-08-05T17:38:37.325Z,27.71
2022-08-05T17:41:11.576Z,27.63
2022-08-05T17:43:55.180Z,27.58
2022-08-05T17:46:23.690Z,27.54
2022-08-05T17:48:50.797Z,27.43
2022-08-05T17:51:21.886Z,27.32
2022-08-05T17:53:50.803Z,27.24
2022-08-05T17:56:22.725Z,27.21
2022-08-05T17:58:51.121Z,27.21
2022-08-05T18:01:18.931Z,27.22
2022-08-05T18:03:58.312Z,27.17
2022-08-05T18:06:31.133Z,27.10
2022-08-05T18:08:58.682Z,27.06
2022-08-05T18:11:33.423Z,27.08
2022-08-05T18:14:07.335Z,26.98
2022-08-05T18:16:51.479Z,26.93
2022-08-05T18:19:22.798Z,26.83
2022-08-05T18:22:09.801Z,26.80
2022-08-05T18:24:39.551Z,26.77
2022-08-05T18:27:18.094Z,26.74
2022-08-05T18:29:51.919Z,26.68
2022-08-05T18:32:20.898Z,26.62
2022-08-05T18:34:55.853Z,26.54
2022-08-05T18:37:34.605Z,26.40
2022-08-05T18:41:50.740Z,26.45
2022-08-05T18:42:57.230Z,26.42
2022-08-05T18:45:24.852Z,26.37
2022-08-05T18:47:56.778Z,26.37
2022-08-05T18:50:46.180Z,26.29
2022-08-05T18:53:20.834Z,26.22
2022-08-05T18:55:52.088Z,26.19
2022-08-05T18:58:28.887Z,26.09
2022-08-05T19:00:57.079Z,26.04
2022-08-05T19:03:55.110Z,25.93
2022-08-05T19:06:21.682Z,25.80
2022-08-05T19:08:49.769Z,25.70
2022-08-05T19:11:19.489Z,25.51
2022-08-05T19:14:01.016Z,25.19
2022-08-05T19:16:36.882Z,24.96
2022-08-05T19:19:14.525Z,24.70
2022-08-05T19:21:42.445Z,24.56
2022-08-05T19:24:12.540Z,24.39
2022-08-05T19:26:54.140Z,24.29
2022-08-05T19:29:23.780Z,24.26
2022-08-05T19:31:57.552Z,24.20
2022-08-05T19:34:25.632Z,24.08
2022-08-05T19:36:53.023Z,24.08
2022-08-05T19:39:20.104Z,24.01
2022-08-05T19:42:07.089Z,24.05
2022-08-05T19:44:45.233Z,24.04
2022-08-05T19:47:15.331Z,24.01
2022-08-05T19:49:45.189Z,23.97
2022-08-05T19:52:30.259Z,23.94
2022-08-05T19:55:00.398Z,23.91
2022-08-05T19:57:49.040Z,23.81
2022-08-05T20:00:22.145Z,23.76
2022-08-05T20:02:49.538Z,23.77
2022-08-05T20:05:24.429Z,23.68
2022-08-05T20:07:57.709Z,23.68
2022-08-05T20:10:26.689Z,23.59
2022-08-05T20:12:55.103Z,23.49
2022-08-05T20:15:51.647Z,23.48
2022-08-05T20:18:33.955Z,23.50
2022-08-05T20:20:58.237Z,23.41
2022-08-05T20:23:39.873Z,23.43
2022-08-05T20:26:17.300Z,23.31
2022-08-05T20:28:47.954Z,23.20
2022-08-05T20:31:16.338Z,23.15
2022-08-05T20:33:44.990Z,23.13
2022-08-05T20:36:14.291Z,23.13
2022-08-05T20:38:53.727Z,22.77
2022-08-05T20:41:26.914Z,22.36
2022-08-05T20:43:59.774Z,22.04
2022-08-05T20:46:29.073Z,21.71
2022-08-05T20:48:56.515Z,21.47
2022-08-05T20:51:23.952Z,21.29
2022-08-05T20:53:56.328Z,21.03
2022-08-05T20:56:28.191Z,20.46
2022-08-05T20:59:04.233Z,19.66
2022-08-05T21:01:42.064Z,19.25
2022-08-05T21:04:12.600Z,19.31
2022-08-05T21:06:45.469Z,19.43
2022-08-05T21:09:14.875Z,19.47
2022-08-05T21:12:07.661Z,19.43
2022-08-05T21:14:34.600Z,19.51
2022-08-05T21:17:05.069Z,19.44
2022-08-05T21:19:46.550Z,19.49
2022-08-05T21:22:18.322Z,19.56
2022-08-05T21:24:48.752Z,19.55
2022-08-05T21:27:16.579Z,19.49
2022-08-05T21:29:48.408Z,19.54
2022-08-05T21:32:20.026Z,19.49
2022-08-05T21:35:06.811Z,19.37
2022-08-05T21:37:34.942Z,19.44
2022-08-05T21:40:13.181Z,19.36
2022-08-05T21:42:44.712Z,19.32
2022-08-05T21:45:24.589Z,19.34
2022-08-05T21:47:55.657Z,19.39
2022-08-05T21:50:27.931Z,19.38
2022-08-05T21:52:58.979Z,19.39
2022-08-05T21:56:01.315Z,19.33
2022-08-05T21:58:24.979Z,19.20
2022-08-05T22:00:58.369Z,19.26
2022-08-05T22:03:52.852Z,19.29
2022-08-05T22:06:12.841Z,19.16
2022-08-05T22:08:42.514Z,19.09
2022-08-05T22:11:15.586Z,19.12
2022-08-05T22:14:19.894Z,19.19
2022-08-05T22:16:41.750Z,19.30
2022-08-05T22:20:02.971Z,19.45
2022-08-05T22:22:07.017Z,19.49
2022-08-05T22:24:53.537Z,19.49
2022-08-05T22:28:09.184Z,19.46
2022-08-05T22:30:35.105Z,19.37
2022-08-05T22:33:15.554Z,19.39
2022-08-05T22:35:48.483Z,19.34
2022-08-05T22:38:19.584Z,19.45
2022-08-05T22:40:49.858Z,19.40
2022-08-05T22:43:36.674Z,19.49
2022-08-05T22:46:13.110Z,19.22
2022-08-05T22:48:42.034Z,19.06
2022-08-05T22:51:22.376Z,18.97
2022-08-05T22:53:50.282Z,18.96
2022-08-05T22:56:18.109Z,18.91
2022-08-05T22:59:02.874Z,18.98
2022-08-05T23:02:03.985Z,18.99
2022-08-05T23:04:18.125Z,19.07
2022-08-05T23:06:45.538Z,19.07
2022-08-05T23:09:52.756Z,18.99
2022-08-05T23:12:02.564Z,19.09
2022-08-05T23:14:32.171Z,18.85
2022-08-05T23:17:24.333Z,18.94
2022-08-05T23:20:02.305Z,18.80
2022-08-05T23:22:30.803Z,18.68
2022-08-05T23:24:58.403Z,18.52
2022-08-05T23:27:31.324Z,18.55
2022-08-05T23:30:10.774Z,18.40
2022-08-05T23:32:37.966Z,18.48
2022-08-05T23:35:12.589Z,18.43
2022-08-05T23:37:39.721Z,18.42
2022-08-05T23:40:09.547Z,18.45
2022-08-05T23:42:38.623Z,18.39
2022-08-05T23:45:13.838Z,18.41
2022-08-05T23:47:47.815Z,18.42
2022-08-05T23:50:16.984Z,18.35
2022-08-05T23:52:50.007Z,18.44
2022-08-05T23:55:19.108Z,18.47
2022-08-05T23:57:49.033Z,18.46
